Time;durP1;ratioP1;P1;durP2;ratioP2;P2;SDS_P1;SDS_P2;PMS_P1;PMS_P2;Temp;Humidity;BMP_temperature;BMP_pressure;BME280_temperature;BME280_humidity;BME280_pressure;Samples;Min_cycle;Max_cycle;Signal;HPM_P1;HPM_P2
2022/05/20 00:00:56;;;;;;;;;;;;;;;19.34;57.57;101849.00;7408232;19;1454;-67
2022/05/20 00:03:24;;;;;;;;;;;;;;;19.34;56.96;101849.00;7410282;19;1622;-67
2022/05/20 00:05:54;;;;;;;;;;;;;;;19.34;57.04;101859.72;7410196;19;1564;-66
2022/05/20 00:08:22;;;;;;;;;;;;;;;19.33;57.09;101846.44;7409363;19;1693;-67
2022/05/20 00:10:53;;;;;;;;;;;;;;;19.36;57.13;101857.78;7407625;19;1870;-67
2022/05/20 00:13:22;;;;;;;;;;;;;;;19.33;57.40;101844.59;7409707;19;1620;-62
2022/05/20 00:15:50;;;;;;;;;;;;;;;19.36;57.12;101862.28;7409813;19;1552;-62
2022/05/20 00:18:19;;;;;;;;;;;;;;;19.32;57.15;101859.00;7410084;19;1542;-67
2022/05/20 00:20:47;;;;;;;;;;;;;;;19.33;57.03;101847.28;7408888;19;1628;-66
2022/05/20 00:23:15;;;;;;;;;;;;;;;19.29;57.10;101837.75;7406742;19;1763;-67
2022/05/20 00:25:49;;;;;;;;;;;;;;;19.32;56.95;101848.25;7408831;19;1551;-63
2022/05/20 00:28:23;;;;;;;;;;;;;;;19.28;56.77;101849.44;7408995;19;1610;-67
2022/05/20 00:30:52;;;;;;;;;;;;;;;19.29;57.05;101845.78;7408637;19;1849;-61
2022/05/20 00:33:20;;;;;;;;;;;;;;;19.27;57.12;101835.16;7409537;19;1512;-62
2022/05/20 00:35:49;;;;;;;;;;;;;;;19.29;56.69;101851.16;7408579;19;1681;-62
2022/05/20 00:38:18;;;;;;;;;;;;;;;19.24;56.81;101837.22;7407836;19;1666;-67
2022/05/20 00:40:46;;;;;;;;;;;;;;;19.25;56.62;101834.41;7408011;19;1621;-67
2022/05/20 00:43:17;;;;;;;;;;;;;;;19.24;56.51;101840.75;7408451;19;1546;-67
2022/05/20 00:45:48;;;;;;;;;;;;;;;19.27;56.67;101850.41;7409199;19;1622;-67
2022/05/20 00:48:16;;;;;;;;;;;;;;;19.22;56.84;101837.34;7408254;19;1621;-67
2022/05/20 00:50:46;;;;;;;;;;;;;;;19.23;56.67;101840.88;7406858;19;1856;-62
2022/05/20 00:53:16;;;;;;;;;;;;;;;19.23;56.21;101870.38;7408014;19;1575;-65
2022/05/20 00:55:46;;;;;;;;;;;;;;;19.20;56.57;101843.75;7408529;19;1528;-63
2022/05/20 00:58:16;;;;;;;;;;;;;;;19.20;56.41;101855.38;7408874;19;1328;-67
2022/05/20 01:00:45;;;;;;;;;;;;;;;19.20;56.69;101843.75;7406762;19;1597;-66
2022/05/20 01:03:18;;;;;;;;;;;;;;;19.18;56.37;101848.38;7407830;19;1669;-67
2022/05/20 01:05:47;;;;;;;;;;;;;;;19.20;56.38;101854.47;7407626;19;1486;-62
2022/05/20 01:08:16;;;;;;;;;;;;;;;19.20;56.24;101860.72;7406398;19;1531;-62
2022/05/20 01:10:45;;;;;;;;;;;;;;;19.17;56.25;101846.69;7406511;19;1853;-62
2022/05/20 01:13:14;;;;;;;;;;;;;;;19.13;56.20;101848.72;7407047;19;1632;-62
2022/05/20 01:15:43;;;;;;;;;;;;;;;19.17;56.45;101852.03;7407695;19;1493;-62
2022/05/20 01:18:13;;;;;;;;;;;;;;;19.13;56.21;101851.41;7406504;19;1646;-62
2022/05/20 01:20:46;;;;;;;;;;;;;;;19.15;56.16;101864.69;7407681;19;1657;-68
2022/05/20 01:23:18;;;;;;;;;;;;;;;19.13;55.88;101867.47;7406288;19;1764;-62
2022/05/20 01:25:48;;;;;;;;;;;;;;;19.16;55.81;101861.03;7407642;19;1535;-67
2022/05/20 01:28:17;;;;;;;;;;;;;;;19.12;55.85;101859.53;7406646;19;1623;-62
2022/05/20 01:30:49;;;;;;;;;;;;;;;19.13;55.78;101858.59;7406152;19;1849;-62
2022/05/20 01:33:21;;;;;;;;;;;;;;;19.16;55.67;101877.13;7406331;19;1713;-67
2022/05/20 01:35:50;;;;;;;;;;;;;;;19.11;55.44;101857.84;7405444;19;1559;-67
2022/05/20 01:38:21;;;;;;;;;;;;;;;19.11;55.72;101864.06;7406139;19;1533;-62
2022/05/20 01:40:52;;;;;;;;;;;;;;;19.16;55.83;101851.19;7406237;19;1697;-62
2022/05/20 01:43:30;;;;;;;;;;;;;;;19.07;55.70;101858.03;7405763;19;1562;-62
2022/05/20 01:46:02;;;;;;;;;;;;;;;19.10;55.76;101859.69;7405859;19;1649;-67
2022/05/20 01:48:33;;;;;;;;;;;;;;;19.05;55.71;101859.97;7406802;19;1645;-63
2022/05/20 01:51:02;;;;;;;;;;;;;;;19.10;55.47;101862.34;7405799;19;1857;-62
2022/05/20 01:53:38;;;;;;;;;;;;;;;19.07;55.94;101831.25;7404879;19;1621;-66
2022/05/20 01:56:11;;;;;;;;;;;;;;;19.07;55.92;101847.31;7405458;19;1434;-62
2022/05/20 01:58:42;;;;;;;;;;;;;;;19.08;56.00;101846.38;7405132;19;1527;-62
2022/05/20 02:01:13;;;;;;;;;;;;;;;19.06;55.39;101864.38;7396419;19;1661;-67
2022/05/20 02:03:44;;;;;;;;;;;;;;;19.04;55.30;101839.50;7404649;19;1527;-67
2022/05/20 02:06:16;;;;;;;;;;;;;;;19.07;55.44;101857.19;7404701;19;1536;-61
2022/05/20 02:08:49;;;;;;;;;;;;;;;19.03;55.27;101851.19;7405047;19;1515;-62
2022/05/20 02:11:19;;;;;;;;;;;;;;;19.02;55.20;101832.53;7404419;19;1854;-67
2022/05/20 02:13:50;;;;;;;;;;;;;;;19.01;55.63;101841.56;7405001;19;1592;-67
2022/05/20 02:16:22;;;;;;;;;;;;;;;19.00;55.30;101846.06;7405260;19;1518;-67
2022/05/20 02:18:53;;;;;;;;;;;;;;;19.00;55.44;101839.81;7404083;19;1719;-61
2022/05/20 02:21:23;;;;;;;;;;;;;;;19.03;55.27;101844.97;7405187;19;1535;-67
2022/05/20 02:23:56;;;;;;;;;;;;;;;19.00;55.34;101837.13;7404258;19;1413;-67
2022/05/20 02:26:26;;;;;;;;;;;;;;;19.03;55.55;101843.16;7404140;19;1434;-67
2022/05/20 02:28:58;;;;;;;;;;;;;;;19.00;55.11;101843.38;7403611;19;1434;-63
2022/05/20 02:31:28;;;;;;;;;;;;;;;19.03;55.40;101850.34;7404195;19;1850;-62
2022/05/20 02:33:56;;;;;;;;;;;;;;;18.98;55.13;101841.75;7404847;19;1660;-67
2022/05/20 02:36:28;;;;;;;;;;;;;;;18.99;55.19;101848.84;7404735;19;1561;-67
2022/05/20 02:38:59;;;;;;;;;;;;;;;19.00;55.05;101855.91;7404271;19;1610;-66
2022/05/20 02:41:27;;;;;;;;;;;;;;;18.96;54.96;101860.66;7404321;19;1612;-67
2022/05/20 02:43:55;;;;;;;;;;;;;;;18.97;55.33;101862.34;7404195;19;1559;-62
2022/05/20 02:46:23;;;;;;;;;;;;;;;18.94;54.93;101846.50;7405623;19;1343;-67
2022/05/20 02:48:52;;;;;;;;;;;;;;;18.98;55.13;101853.34;7411841;19;1753;-62
2022/05/20 02:51:21;;;;;;;;;;;;;;;18.97;54.87;101856.13;7411383;19;1849;-66
2022/05/20 02:53:49;;;;;;;;;;;;;;;18.97;54.95;101854.31;7411173;19;1512;-62
2022/05/20 02:56:20;;;;;;;;;;;;;;;18.95;54.88;101850.03;7410348;19;1544;-67
2022/05/20 03:04:13;;;;;;;;;;;;;;;18.94;55.34;101857.22;7412463;19;1388;-62
2022/05/20 03:06:41;;;;;;;;;;;;;;;18.96;55.09;101852.63;7411553;19;1743;-62
2022/05/20 03:09:10;;;;;;;;;;;;;;;18.96;54.81;101860.66;7407213;19;1720;-62
2022/05/20 03:11:42;;;;;;;;;;;;;;;18.96;54.97;101863.34;7408201;19;1852;-62
2022/05/20 03:14:11;;;;;;;;;;;;;;;18.97;55.18;101865.03;7408055;19;1615;-62
2022/05/20 03:16:40;;;;;;;;;;;;;;;18.96;55.12;101874.06;7409978;19;1266;-62
2022/05/20 03:19:10;;;;;;;;;;;;;;;18.94;55.23;101851.88;7409000;19;1544;-62
2022/05/20 03:21:39;;;;;;;;;;;;;;;18.98;54.91;101877.47;7411087;19;1303;-62
2022/05/20 03:24:08;;;;;;;;;;;;;;;18.97;54.98;101880.25;7410790;19;1767;-62
2022/05/20 03:26:37;;;;;;;;;;;;;;;19.00;54.82;101866.63;7409561;19;1605;-62
2022/05/20 03:29:08;;;;;;;;;;;;;;;19.01;55.53;101879.09;7409845;19;1340;-61
2022/05/20 03:31:38;;;;;;;;;;;;;;;19.00;54.98;101874.66;7408050;19;1850;-66
2022/05/20 03:34:08;;;;;;;;;;;;;;;19.02;55.32;101865.56;7409976;19;1306;-67
2022/05/20 03:36:37;;;;;;;;;;;;;;;19.03;54.75;101861.91;7410462;19;1265;-66
2022/05/20 03:39:06;;;;;;;;;;;;;;;19.06;54.73;101874.25;7410567;19;1852;-62
2022/05/20 03:41:34;;;;;;;;;;;;;;;19.09;55.14;101871.34;7409653;19;1422;-67
2022/05/20 03:44:03;;;;;;;;;;;;;;;19.10;55.23;101856.13;7409922;19;1259;-67
2022/05/20 03:46:34;;;;;;;;;;;;;;;19.15;54.97;101870.06;7409691;19;1333;-66
2022/05/20 03:49:03;;;;;;;;;;;;;;;19.13;54.43;101853.22;7408444;19;1343;-67
2022/05/20 03:51:31;;;;;;;;;;;;;;;19.18;54.92;101856.41;7407766;19;1852;-67
2022/05/20 03:53:59;;;;;;;;;;;;;;;19.24;54.53;101872.09;7409126;19;1579;-66
2022/05/20 03:56:28;;;;;;;;;;;;;;;19.27;54.41;101870.03;7410123;19;1605;-67
2022/05/20 03:58:56;;;;;;;;;;;;;;;19.36;54.57;101867.63;7409167;19;1705;-67
2022/05/20 04:04:08;;;;;;;;;;;;;;;19.37;53.79;101883.63;7407535;19;1742;-66
2022/05/20 04:06:37;;;;;;;;;;;;;;;19.36;54.09;101873.00;7409094;19;1527;-72
2022/05/20 04:09:06;;;;;;;;;;;;;;;19.45;54.58;101880.41;7409684;19;1300;-63
2022/05/20 04:11:34;;;;;;;;;;;;;;;19.48;54.41;101888.25;7406776;19;1849;-64
2022/05/20 04:14:02;;;;;;;;;;;;;;;19.52;54.07;101887.03;7405972;19;1443;-72
2022/05/20 04:16:31;;;;;;;;;;;;;;;19.57;54.56;101875.97;7408297;19;1323;-69
2022/05/20 04:18:59;;;;;;;;;;;;;;;19.59;54.26;101890.13;7406046;19;1208;-71
2022/05/20 04:21:30;;;;;;;;;;;;;;;19.56;54.03;101890.38;7409158;19;1438;-70
2022/05/20 04:23:58;;;;;;;;;;;;;;;19.58;54.09;101875.00;7408342;19;1351;-69
2022/05/20 04:26:26;;;;;;;;;;;;;;;19.64;54.57;101898.72;7407554;19;1437;-67
2022/05/20 04:28:55;;;;;;;;;;;;;;;19.67;54.65;101883.22;7408267;19;1543;-68
2022/05/20 04:31:23;;;;;;;;;;;;;;;19.73;54.89;101892.69;7407751;19;1866;-61
2022/05/20 04:33:51;;;;;;;;;;;;;;;19.76;54.35;101886.25;7407042;19;1664;-67
2022/05/20 04:36:20;;;;;;;;;;;;;;;19.81;55.28;101890.28;7408742;19;1564;-62
2022/05/20 04:38:50;;;;;;;;;;;;;;;19.80;54.84;101904.69;7408259;19;1481;-67
2022/05/20 04:49:21;;;;;;;;;;;;;;;19.84;55.50;101890.06;7404742;19;1259;-60
2022/05/20 04:51:49;;;;;;;;;;;;;;;19.98;55.25;101912.34;7402881;19;1858;-66
2022/05/20 04:57:01;;;;;;;;;;;;;;;20.05;56.08;101894.81;7405251;19;1401;-66
2022/05/20 04:59:29;;;;;;;;;;;;;;;20.11;55.88;101894.34;7405181;19;1339;-64
2022/05/20 05:01:57;;;;;;;;;;;;;;;20.15;56.26;101903.03;7404965;19;1527;-62
2022/05/20 05:04:26;;;;;;;;;;;;;;;20.20;56.72;101899.03;7407828;19;1629;-61
2022/05/20 05:06:55;;;;;;;;;;;;;;;20.34;55.78;101899.81;7407980;19;1492;-60
2022/05/20 05:09:26;;;;;;;;;;;;;;;20.25;54.79;101910.28;7405362;19;1346;-60
2022/05/20 05:11:54;;;;;;;;;;;;;;;20.29;56.36;101910.03;7404730;19;1852;-65
2022/05/20 05:14:22;;;;;;;;;;;;;;;20.29;56.38;101899.28;7404821;19;1542;-61
2022/05/20 05:16:50;;;;;;;;;;;;;;;20.33;56.39;101906.16;7405886;19;1210;-64
2022/05/20 05:19:19;;;;;;;;;;;;;;;20.36;55.80;101914.00;7407845;19;1526;-65
2022/05/20 05:21:47;;;;;;;;;;;;;;;20.32;55.44;101893.72;7406889;19;1689;-61
2022/05/20 05:24:15;;;;;;;;;;;;;;;20.31;55.58;101908.09;7403232;19;1717;-61
2022/05/20 05:26:46;;;;;;;;;;;;;;;20.27;55.73;101908.34;7404397;19;1702;-61
2022/05/20 05:29:15;;;;;;;;;;;;;;;20.27;56.11;101900.28;7404975;19;1632;-61
2022/05/20 05:31:43;;;;;;;;;;;;;;;20.30;56.00;101906.41;7404907;19;1856;-61
2022/05/20 05:34:11;;;;;;;;;;;;;;;20.26;55.83;101903.09;7406679;19;1531;-60
2022/05/20 05:36:40;;;;;;;;;;;;;;;20.28;55.92;101898.44;7404614;19;1504;-64
2022/05/20 05:39:08;;;;;;;;;;;;;;;20.27;56.13;101908.34;7404305;19;1512;-63
2022/05/20 05:41:36;;;;;;;;;;;;;;;20.32;55.83;101915.19;7405962;19;1453;-61
2022/05/20 05:44:07;;;;;;;;;;;;;;;20.25;56.04;101888.81;7405459;19;1674;-65
2022/05/20 05:46:36;;;;;;;;;;;;;;;20.28;56.40;101911.88;7404739;19;1433;-61
2022/05/20 05:49:06;;;;;;;;;;;;;;;20.24;55.95;101905.88;7405293;19;1511;-61
2022/05/20 05:51:34;;;;;;;;;;;;;;;20.26;55.84;101903.94;7404307;19;1879;-61
2022/05/20 05:54:03;;;;;;;;;;;;;;;20.26;56.08;101908.47;7405901;19;1343;-64
2022/05/20 05:56:31;;;;;;;;;;;;;;;20.25;56.27;101901.34;7405860;19;1367;-64
2022/05/20 05:58:59;;;;;;;;;;;;;;;20.33;56.26;101907.00;7405406;19;1398;-60
2022/05/20 06:01:30;;;;;;;;;;;;;;;20.35;56.22;101914.94;7402992;19;1487;-64
2022/05/20 06:03:59;;;;;;;;;;;;;;;20.31;56.39;101902.72;7404826;19;1433;-60
2022/05/20 06:06:27;;;;;;;;;;;;;;;20.30;56.49;101909.94;7404283;19;1590;-64
2022/05/20 06:08:55;;;;;;;;;;;;;;;20.30;56.14;101896.50;7405126;19;1634;-64
2022/05/20 06:11:24;;;;;;;;;;;;;;;20.31;56.29;101875.88;7403552;19;1646;-64
2022/05/20 06:13:52;;;;;;;;;;;;;;;20.34;56.38;101910.56;7401172;19;1893;-64
2022/05/20 06:16:21;;;;;;;;;;;;;;;20.34;56.38;101902.50;7403431;19;1566;-60
2022/05/20 06:18:53;;;;;;;;;;;;;;;20.33;56.25;101884.66;7405484;19;1503;-64
2022/05/20 06:21:21;;;;;;;;;;;;;;;20.40;56.20;101894.81;7402723;19;1597;-59
2022/05/20 06:23:50;;;;;;;;;;;;;;;20.42;56.87;101898.25;7404169;19;1320;-64
2022/05/20 06:26:18;;;;;;;;;;;;;;;20.50;56.89;101902.19;7404092;19;1398;-64
2022/05/20 06:28:47;;;;;;;;;;;;;;;20.54;56.74;101899.13;7403827;19;1378;-60
2022/05/20 06:31:15;;;;;;;;;;;;;;;20.50;56.68;101892.28;7402047;19;1527;-59
2022/05/20 06:33:43;;;;;;;;;;;;;;;20.54;57.28;101899.13;7399701;19;1867;-59
2022/05/20 06:41:36;;;;;;;;;;;;;;;20.37;57.25;101897.75;7402669;19;1415;-63
2022/05/20 06:44:04;;;;;;;;;;;;;;;20.33;57.64;101908.84;7403524;19;1256;-63
2022/05/20 06:46:33;;;;;;;;;;;;;;;20.42;57.03;101892.88;7403908;19;1278;-61
2022/05/20 06:49:02;;;;;;;;;;;;;;;20.48;57.30;101898.75;7403874;19;1157;-64
2022/05/20 06:51:34;;;;;;;;;;;;;;;20.55;57.41;101905.38;7401607;19;1218;-62
2022/05/20 06:54:03;;;;;;;;;;;;;;;20.53;57.38;101913.56;7400602;19;1856;-60
2022/05/20 06:56:32;;;;;;;;;;;;;;;20.54;57.78;101898.28;7401934;19;1580;-64
2022/05/20 06:59:01;;;;;;;;;;;;;;;20.55;57.83;101900.88;7403216;19;1421;-63
2022/05/20 07:01:30;;;;;;;;;;;;;;;20.60;58.07;101916.66;7400129;19;1537;-60
2022/05/20 07:03:59;;;;;;;;;;;;;;;20.65;59.28;101909.97;7402033;19;1262;-70
2022/05/20 07:06:30;;;;;;;;;;;;;;;20.64;58.37;101916.28;7404428;19;1551;-64
2022/05/20 07:09:01;;;;;;;;;;;;;;;20.62;58.39;101910.19;7403980;19;1227;-65
2022/05/20 07:11:29;;;;;;;;;;;;;;;20.61;58.67;101915.66;7403437;19;1696;-64
2022/05/20 07:13:58;;;;;;;;;;;;;;;20.68;59.39;101910.69;7402328;19;1857;-64
2022/05/20 07:16:28;;;;;;;;;;;;;;;20.72;59.52;101907.66;7404269;19;1633;-67
2022/05/20 07:18:57;;;;;;;;;;;;;;;20.70;60.21;101900.69;7404265;19;1535;-60
2022/05/20 07:21:25;;;;;;;;;;;;;;;20.79;59.86;101918.75;7403772;19;1767;-65
2022/05/20 07:23:54;;;;;;;;;;;;;;;20.81;60.42;101912.31;7403442;19;1537;-69
2022/05/20 07:26:25;;;;;;;;;;;;;;;20.87;59.96;101910.97;7404116;19;1540;-67
2022/05/20 07:28:53;;;;;;;;;;;;;;;20.84;60.51;101909.38;7403945;19;1615;-62
2022/05/20 07:31:23;;;;;;;;;;;;;;;20.89;60.54;101895.59;7402589;19;1497;-62
2022/05/20 07:33:52;;;;;;;;;;;;;;;20.93;60.59;101915.00;7407405;19;1861;-65
2022/05/20 07:36:20;;;;;;;;;;;;;;;20.94;60.50;101906.81;7411796;19;1437;-66
2022/05/20 07:38:49;;;;;;;;;;;;;;;20.91;60.70;101893.63;7410829;19;1761;-65
2022/05/20 07:41:17;;;;;;;;;;;;;;;20.92;60.73;101905.25;7411369;19;1527;-70
2022/05/20 07:43:48;;;;;;;;;;;;;;;20.91;61.13;101908.88;7410675;19;1547;-72
2022/05/20 07:46:17;;;;;;;;;;;;;;;20.93;61.23;101894.38;7411682;19;1548;-69
2022/05/20 07:48:45;;;;;;;;;;;;;;;20.97;61.27;101906.59;7410557;19;1524;-73
2022/05/20 07:51:18;;;;;;;;;;;;;;;20.96;61.48;101904.00;7412455;19;1466;-67
2022/05/20 07:53:54;;;;;;;;;;;;;;;20.91;61.25;101899.00;7408338;19;1871;-65
2022/05/20 07:56:24;;;;;;;;;;;;;;;20.97;61.53;101916.47;7409178;19;1541;-68
2022/05/20 07:58:57;;;;;;;;;;;;;;;20.92;61.39;101914.16;7409142;19;1748;-64
2022/05/20 08:01:28;;;;;;;;;;;;;;;20.93;61.41;101907.81;7410030;19;1690;-72
2022/05/20 08:06:39;;;;;;;;;;;;;;;20.85;61.56;101904.88;7409929;19;1712;-66
2022/05/20 08:09:07;;;;;;;;;;;;;;;20.88;62.02;101909.16;7408830;19;1649;-66
2022/05/20 08:11:35;;;;;;;;;;;;;;;20.88;61.68;101911.84;7408686;19;1641;-65
2022/05/20 08:14:07;;;;;;;;;;;;;;;20.88;61.91;101917.22;7407559;19;1857;-71
2022/05/20 08:16:35;;;;;;;;;;;;;;;20.80;61.75;101899.84;7408691;19;1477;-70
2022/05/20 08:19:03;;;;;;;;;;;;;;;20.79;61.68;101895.44;7408514;19;1694;-71
2022/05/20 08:21:38;;;;;;;;;;;;;;;20.72;61.84;101906.78;7410331;19;1709;-71
2022/05/20 08:24:07;;;;;;;;;;;;;;;20.69;61.63;101910.59;7409364;19;1758;-71
2022/05/20 08:26:35;;;;;;;;;;;;;;;20.59;61.75;101894.31;7409101;19;1626;-66
2022/05/20 08:29:06;;;;;;;;;;;;;;;20.56;62.13;101893.66;7409111;19;1777;-71
2022/05/20 08:31:35;;;;;;;;;;;;;;;20.54;61.76;101888.38;7410006;19;1536;-70
2022/05/20 08:34:03;;;;;;;;;;;;;;;20.53;61.64;101897.44;7406950;19;1953;-65
2022/05/20 08:36:32;;;;;;;;;;;;;;;20.50;61.83;101891.44;7408783;19;1694;-66
2022/05/20 08:39:00;;;;;;;;;;;;;;;20.51;61.94;101894.00;7408481;19;1665;-71
2022/05/20 08:41:30;;;;;;;;;;;;;;;20.46;61.84;101885.44;7408739;19;1631;-70
2022/05/20 08:43:59;;;;;;;;;;;;;;;20.47;61.90;101884.44;7406896;19;1437;-69
2022/05/20 08:46:30;;;;;;;;;;;;;;;20.55;62.66;101890.13;7408632;19;1596;-71
2022/05/20 08:48:59;;;;;;;;;;;;;;;20.64;61.89;101875.97;7408424;19;1647;-67
2022/05/20 08:51:32;;;;;;;;;;;;;;;20.74;61.77;101867.22;7409718;19;1611;-64
2022/05/20 08:54:00;;;;;;;;;;;;;;;20.86;61.87;101871.63;7406156;19;1858;-71
2022/05/20 08:56:29;;;;;;;;;;;;;;;20.87;61.55;101881.41;7407740;19;1538;-69
2022/05/20 08:58:59;;;;;;;;;;;;;;;20.86;60.99;101866.25;7408255;19;1350;-75
2022/05/20 09:01:32;;;;;;;;;;;;;;;20.81;60.30;101853.16;7407902;19;1580;-71
2022/05/20 09:04:01;;;;;;;;;;;;;;;20.77;60.50;101846.31;7407517;19;1764;-69
2022/05/20 09:06:29;;;;;;;;;;;;;;;20.74;60.76;101851.09;7408995;19;1634;-65
2022/05/20 09:09:09;;;;;;;;;;;;;;;20.72;61.18;101848.50;7406950;19;1653;-74
2022/05/20 09:11:38;;;;;;;;;;;;;;;20.76;60.75;101849.97;7406971;19;1682;-66
2022/05/20 09:17:00;;;;;;;;;;;;;;;20.60;60.65;101833.34;7408245;19;1516;-71
2022/05/20 09:19:29;;;;;;;;;;;;;;;20.55;60.69;101836.38;7408660;19;1651;-66
2022/05/20 09:22:06;;;;;;;;;;;;;;;20.52;60.86;101830.38;7408826;19;1544;-66
2022/05/20 09:24:39;;;;;;;;;;;;;;;20.48;60.77;101835.13;7407574;19;1421;-66
2022/05/20 09:27:09;;;;;;;;;;;;;;;20.46;60.98;101818.28;7405493;19;1733;-71
2022/05/20 09:29:40;;;;;;;;;;;;;;;20.46;60.69;101834.38;7406978;19;1546;-66
2022/05/20 09:32:18;;;;;;;;;;;;;;;20.44;60.66;101820.22;7407571;19;1636;-71
2022/05/20 09:34:46;;;;;;;;;;;;;;;20.44;60.87;101814.84;7404990;19;1860;-71
2022/05/20 09:37:20;;;;;;;;;;;;;;;20.44;60.70;101814.84;7407869;19;1627;-71
2022/05/20 09:39:49;;;;;;;;;;;;;;;20.45;60.38;101820.13;7407173;19;1582;-67
2022/05/20 09:42:19;;;;;;;;;;;;;;;20.41;60.70;101828.50;7405966;19;1521;-66
2022/05/20 09:44:49;;;;;;;;;;;;;;;20.43;60.66;101802.38;7407775;19;1919;-71
2022/05/20 09:47:26;;;;;;;;;;;;;;;20.40;60.33;101810.69;7405929;19;2061;-71
2022/05/20 09:49:57;;;;;;;;;;;;;;;20.39;60.38;101811.66;7407332;19;1543;-66
2022/05/20 09:52:28;;;;;;;;;;;;;;;20.41;60.47;101807.88;7406005;19;1732;-67
2022/05/20 09:55:01;;;;;;;;;;;;;;;20.37;60.47;101827.03;7403982;19;1869;-70
2022/05/20 09:57:32;;;;;;;;;;;;;;;20.38;60.51;101807.28;7406201;19;1525;-71
2022/05/20 10:00:04;;;;;;;;;;;;;;;20.31;60.56;101788.06;7406565;19;1277;-67
2022/05/20 10:02:37;;;;;;;;;;;;;;;20.34;60.50;101797.75;7404482;19;1575;-71
2022/05/20 10:05:12;;;;;;;;;;;;;;;20.34;60.42;101790.53;7407184;19;1299;-71
2022/05/20 10:07:49;;;;;;;;;;;;;;;20.33;60.58;101787.94;7404374;19;1473;-71
2022/05/20 10:10:23;;;;;;;;;;;;;;;20.40;60.46;101789.19;7403906;19;1765;-71
2022/05/20 10:12:53;;;;;;;;;;;;;;;20.46;59.98;101775.28;7406091;19;1775;-67
2022/05/20 10:15:24;;;;;;;;;;;;;;;20.57;59.68;101775.31;7405058;19;1768;-64
2022/05/20 10:18:04;;;;;;;;;;;;;;;20.66;59.88;101774.59;7403883;19;1347;-67
2022/05/20 10:20:36;;;;;;;;;;;;;;;20.70;60.20;101782.41;7405788;19;1673;-66
2022/05/20 10:23:09;;;;;;;;;;;;;;;20.69;60.03;101776.19;7404849;19;1618;-64
2022/05/20 10:25:41;;;;;;;;;;;;;;;20.74;60.22;101770.44;7405649;19;1678;-66
2022/05/20 10:32:34;;;;;;;;;;;;;;;20.65;60.38;101762.13;7405091;19;1639;-66
2022/05/20 10:33:56;;;;;;;;;;;;;;;20.57;60.84;101769.03;7404395;19;1838;-69
2022/05/20 10:36:28;;;;;;;;;;;;;;;20.56;60.82;101762.81;7405593;19;1516;-64
2022/05/20 10:39:05;;;;;;;;;;;;;;;20.57;61.29;101753.81;7404920;19;1670;-63
2022/05/20 10:41:42;;;;;;;;;;;;;;;20.57;61.17;101748.44;7404348;19;1550;-72
2022/05/20 10:49:56;;;;;;;;;;;;;;;20.77;60.63;101756.75;7406421;19;1501;-61
2022/05/20 10:52:34;;;;;;;;;;;;;;;20.81;60.72;101734.00;7405469;19;1764;-66
2022/05/20 10:55:11;;;;;;;;;;;;;;;20.68;61.05;101738.69;7402627;19;1845;-68
2022/05/20 10:57:54;;;;;;;;;;;;;;;20.76;60.62;101742.44;7404264;19;1764;-62
2022/05/20 11:00:24;;;;;;;;;;;;;;;20.79;60.62;101741.34;7401885;19;1497;-67
2022/05/20 11:03:11;;;;;;;;;;;;;;;20.78;60.94;101728.91;7403861;19;1603;-76
2022/05/20 11:05:55;;;;;;;;;;;;;;;20.71;61.00;101723.16;7405076;19;1689;-64
2022/05/20 11:08:29;;;;;;;;;;;;;;;20.69;60.88;101710.81;7408912;19;1721;-75
2022/05/20 11:11:19;;;;;;;;;;;;;;;20.67;61.18;101716.31;7412307;19;1482;-64
2022/05/20 11:13:58;;;;;;;;;;;;;;;20.71;60.91;101690.03;7409686;19;1855;-69
2022/05/20 11:16:41;;;;;;;;;;;;;;;20.75;60.44;101703.13;7408909;19;1767;-64
2022/05/20 11:19:21;;;;;;;;;;;;;;;20.78;60.63;101705.53;7409065;19;1673;-71
2022/05/20 11:22:00;;;;;;;;;;;;;;;20.77;60.10;101686.84;7412547;19;1665;-65
2022/05/20 11:24:45;;;;;;;;;;;;;;;20.81;59.91;101696.38;7409308;19;1657;-63
2022/05/20 11:27:30;;;;;;;;;;;;;;;20.77;60.52;101687.72;7408156;19;1640;-62
2022/05/20 11:30:13;;;;;;;;;;;;;;;20.80;60.40;101689.31;7409354;19;1535;-68
2022/05/20 11:32:55;;;;;;;;;;;;;;;20.78;60.19;101686.72;7410606;19;1363;-66
2022/05/20 11:35:30;;;;;;;;;;;;;;;20.80;60.51;101695.53;7407721;19;1860;-69
2022/05/20 11:38:12;;;;;;;;;;;;;;;20.79;60.46;101682.19;7410370;19;1497;-66
2022/05/20 11:40:54;;;;;;;;;;;;;;;20.77;60.66;101678.78;7409813;19;1783;-64
2022/05/20 11:43:35;;;;;;;;;;;;;;;20.78;60.11;101670.59;7411297;19;1610;-63
2022/05/20 11:46:09;;;;;;;;;;;;;;;20.87;60.81;101669.00;7410955;19;1773;-70
2022/05/20 11:48:45;;;;;;;;;;;;;;;20.79;60.98;101658.88;7410278;19;1379;-62
2022/05/20 11:51:19;;;;;;;;;;;;;;;20.79;61.23;101656.19;7412133;19;1453;-73
2022/05/20 11:53:54;;;;;;;;;;;;;;;20.74;61.06;101639.56;7407064;19;1852;-71
2022/05/20 11:56:28;;;;;;;;;;;;;;;20.74;60.87;101654.84;7408928;19;1372;-73
2022/05/20 11:59:00;;;;;;;;;;;;;;;20.86;61.03;101643.09;7406071;19;1407;-70
2022/05/20 12:01:29;;;;;;;;;;;;;;;20.88;60.93;101643.81;7408897;19;1423;-70
2022/05/20 12:04:11;;;;;;;;;;;;;;;20.89;60.79;101645.53;7408971;19;1320;-69
2022/05/20 12:06:44;;;;;;;;;;;;;;;20.84;60.55;101635.16;7409915;19;1752;-66
2022/05/20 12:09:27;;;;;;;;;;;;;;;20.82;60.42;101630.88;7405645;19;1729;-63
2022/05/20 12:12:11;;;;;;;;;;;;;;;20.79;60.21;101621.25;7408556;19;1785;-67
2022/05/20 12:14:54;;;;;;;;;;;;;;;20.81;60.47;101618.41;7407225;19;1833;-63
2022/05/20 12:17:34;;;;;;;;;;;;;;;20.83;60.69;101627.19;7408419;19;1290;-62
2022/05/20 12:25:41;;;;;;;;;;;;;;;20.90;61.03;101604.22;7409092;19;1480;-61
2022/05/20 12:28:10;;;;;;;;;;;;;;;20.84;60.64;101610.09;7407074;19;1529;-66
2022/05/20 12:30:40;;;;;;;;;;;;;;;20.80;61.24;101603.28;7408413;19;1800;-61
2022/05/20 12:33:25;;;;;;;;;;;;;;;20.73;61.28;101592.19;7408509;19;1724;-61
2022/05/20 12:36:18;;;;;;;;;;;;;;;20.73;61.19;101597.56;7407112;19;1856;-61
2022/05/20 12:38:47;;;;;;;;;;;;;;;20.72;61.26;101595.84;7409702;19;1500;-62
2022/05/20 12:41:19;;;;;;;;;;;;;;;20.73;61.55;101576.06;7409445;19;1532;-68
2022/05/20 12:43:49;;;;;;;;;;;;;;;20.79;61.32;101590.81;7406465;19;1642;-61
2022/05/20 12:46:33;;;;;;;;;;;;;;;20.81;61.11;101578.09;7407350;19;1747;-64
2022/05/20 12:49:04;;;;;;;;;;;;;;;20.82;60.89;101569.91;7406198;19;1635;-67
2022/05/20 12:51:41;;;;;;;;;;;;;;;20.84;60.77;101572.47;7408499;19;1544;-69
2022/05/20 12:54:16;;;;;;;;;;;;;;;20.92;61.32;101564.63;7406369;19;1857;-64
2022/05/20 12:56:44;;;;;;;;;;;;;;;21.02;61.39;101562.00;7408915;19;1267;-69
2022/05/20 12:59:17;;;;;;;;;;;;;;;20.98;60.87;101547.13;7406136;19;1458;-66
2022/05/20 13:01:49;;;;;;;;;;;;;;;20.91;61.90;101544.09;7407491;19;1667;-68
2022/05/20 13:04:22;;;;;;;;;;;;;;;20.89;61.40;101540.69;7408064;19;1454;-68
2022/05/20 13:06:51;;;;;;;;;;;;;;;20.89;61.41;101547.88;7406190;19;1677;-68
2022/05/20 13:09:27;;;;;;;;;;;;;;;20.83;61.18;101534.00;7403200;19;1613;-67
2022/05/20 13:11:55;;;;;;;;;;;;;;;20.80;61.54;101546.84;7405912;19;1518;-67
2022/05/20 13:14:25;;;;;;;;;;;;;;;20.75;61.51;101552.59;7405836;19;1849;-67
2022/05/20 13:16:57;;;;;;;;;;;;;;;20.72;61.35;101542.09;7407492;19;1370;-67
2022/05/20 13:19:33;;;;;;;;;;;;;;;20.69;61.17;101536.13;7407693;19;1645;-67
2022/05/20 13:22:04;;;;;;;;;;;;;;;20.68;61.52;101537.09;7408708;19;971;-67
2022/05/20 13:24:36;;;;;;;;;;;;;;;20.65;61.75;101541.75;7407305;19;1539;-67
2022/05/20 13:27:05;;;;;;;;;;;;;;;20.67;61.61;101533.53;7406861;19;1639;-67
2022/05/20 13:29:33;;;;;;;;;;;;;;;20.67;61.84;101533.53;7406912;19;1486;-66
2022/05/20 13:32:28;;;;;;;;;;;;;;;20.65;61.74;101544.44;7405517;19;1281;-67
2022/05/20 13:35:01;;;;;;;;;;;;;;;20.64;61.81;101534.66;7402111;19;2012;-67
2022/05/20 13:37:33;;;;;;;;;;;;;;;20.61;62.10;101512.56;7406413;19;1523;-67
2022/05/20 13:40:08;;;;;;;;;;;;;;;20.66;61.68;101524.63;7406234;19;1488;-67
2022/05/20 13:42:36;;;;;;;;;;;;;;;20.65;61.90;101512.19;7406653;19;1654;-67
2022/05/20 13:45:09;;;;;;;;;;;;;;;20.65;61.94;101514.00;7405311;19;1542;-68
2022/05/20 13:50:22;;;;;;;;;;;;;;;20.59;62.06;101484.97;7407863;19;1322;-67
2022/05/20 13:52:51;;;;;;;;;;;;;;;20.59;62.00;101503.78;7406719;19;1675;-66
2022/05/20 13:55:20;;;;;;;;;;;;;;;20.57;62.14;101493.16;7406831;19;2021;-67